Decoded Metar for LQMO (MOSTAR in BOSNIA-HERCEGOVINA) (IATA:OMO) | Meteo·Mobile Aviation Weather
aviador You're here:

LQMO Decoded Metar

MOSTAR in BOSNIA-HERCEGOVINA
Report Time2019-07-16 10:00:00
UTC Time2019-07-16 10:30:56
Flight Rules vfr VFR
Wind040° at 08 kt
W.Decomp.*RWY 34: 4.1 kt HW 6.9 kt RCW
Visibility9999 m
Phenomena:N/A
Clouds:Few 050 Hf
Expected CloudBase > 8,800 ft AGL from Temp-Dew spread
CeilingNone
Temp28°C (ISA +14)
Dew Point06°C (25% RH)
Heat Index26.9°C
AAT24.2°C
QNH1007 hPa
Density Alt2,260 ft
Elevation354 ft
Report Wrong Elevation
Raw Report
LQMO 161000Z 04008KT 010V080 9999 FEW050 28/06 Q1007=

Extra information for LQMO:More info

Metar Taf Metar & Taf Last 4 Metars F.Rules Stats Wind Profile Meteogram Temp Stats Airport Information Weather charts Add Link Nearby VenuesMetar ALERT Operation Metar Decoded Social comments